Impacts TAF Board INFO
FOR SITUATIONAL AWARENESS. NOT TO BE USED FOR FLIGHT PLANNING PURPOSES.
IDs:

KJFK - New York/Kennedy Int, NY, US

Issued at 1735 UTC 24 Jun 2018
Updated at 1820 UTC 24 Jun 2018
Potential Impact None Slight Moderate High
Time<<25/19Z 25/20Z 25/21Z 25/22Z 25/23Z 26/00Z 26/01Z 26/02Z 26/03Z 26/04Z 26/05Z 26/06Z 26/07Z
Type PRVL PRVL PRVL PRVL PRVL
VIS >6 >6 >6 >6 >6
CIG -- -- -- -- --
Cover SCT SCT SCT SCT SCT
FltCat VFR VFR VFR VFR VFR
WX -- -- -- -- --
WDir 320 320 320 320 320
WSpd 14 14 14 14 14
WGst 22 22 22 22 22

Raw TAF
KJFK 241735Z 2418/2524 18012KT P6SM FEW008 SCT025 SCT200
  TEMPO 2418/2419 BKN035
  FM241900 19012KT P6SM SCT040 SCT200
  FM242200 21011KT P6SM VCTS BKN040CB
  FM250200 27008KT P6SM VCSH SCT040 BKN250
  FM250600 31007KT P6SM FEW030 BKN250
  FM250900 33010KT P6SM FEW030 BKN250
  FM251400 32014G22KT P6SM SCT050 SCT250


METAR Board
Radar Display
Forecast Discussion

FOR SITUATIONAL AWARENESS. NOT TO BE USED FOR FLIGHT PLANNING PURPOSES.